Siempre Rufo — EA6245 — position and weather

sailwx.info

Track history (hours):
 
Tides and Currents Weather Stations Pressure Air Temp Water Temp Dewpoint Dewpoint Depression Visibility Wind Speed Wind Dir Waves Ship Positions

Siempre Rufo

Last reported at 2018-Feb-23 18:15 UTC. Time now 2018-Feb-24 20:19 UTC.
Position N 43°32' W 003°39'.

Length 18 m.

Type: Fishing. MMSI: 224011530.

Date/timePositionNaut miles runAvg speedWind from/ knotsBaromVisibWave heightAir tempDewpointWater temp
2018-Feb-23 18:15N 43°32' W 003°39'2 8.1
2018-Feb-23 18:00N 43°33' W 003°37'4 8.2
2018-Feb-23 17:30N 43°35' W 003°33'0 0.4
2018-Feb-23 17:00N 43°35' W 003°33'0 0.9
2018-Feb-23 16:30N 43°35' W 003°33'1 2.3
2018-Feb-23 15:59N 43°36' W 003°34'0 0.5
2018-Feb-23 15:29N 43°36' W 003°34'0 0.7
2018-Feb-23 15:00N 43°36' W 003°34'1 1.4
2018-Feb-23 14:29N 43°36' W 003°34'0 0.5
2018-Feb-23 13:57N 43°36' W 003°33'0 0.6
2018-Feb-23 13:26N 43°37' W 003°33'0 0.7
2018-Feb-23 12:56N 43°36' W 003°32'1 3.1
2018-Feb-23 12:30N 43°36' W 003°34'1 2.1
2018-Feb-23 12:00N 43°36' W 003°35'0 0.9
2018-Feb-23 11:30N 43°36' W 003°36'0 0.9
2018-Feb-23 11:00N 43°35' W 003°37'1 1.7
2018-Feb-23 10:30N 43°36' W 003°35'0 0.8
2018-Feb-23 10:00N 43°36' W 003°36'0 0.8
2018-Feb-23 09:30N 43°35' W 003°37'0 0.9
2018-Feb-23 09:00N 43°35' W 003°37'2 4.6
2018-Feb-23 08:30N 43°34' W 003°34'0 0.8
2018-Feb-23 08:00N 43°35' W 003°34'0 0.7
2018-Feb-23 07:30N 43°35' W 003°34'0 0.7
2018-Feb-23 07:00N 43°35' W 003°34'1 1.8
2018-Feb-23 06:30N 43°36' W 003°34'1 1.8
2018-Feb-23 06:00N 43°36' W 003°33'1 2.3
2018-Feb-23 05:30N 43°36' W 003°34'1 1.6
2018-Feb-23 05:00N 43°36' W 003°35'0 0.5
2018-Feb-23 04:30N 43°36' W 003°36'2 4.5
2018-Feb-23 04:00N 43°34' W 003°38'3 0.3
2018-Feb-22 18:36N 43°32' W 003°39'1 8.4
2018-Feb-22 18:30N 43°32' W 003°39'4 8.3
2018-Feb-22 18:00N 43°34' W 003°34'1 1.8
2018-Feb-22 17:30N 43°35' W 003°33'0 0.4
2018-Feb-22 17:00N 43°35' W 003°32'0 0.4
2018-Feb-22 16:29N 43°35' W 003°32'0 0.5
2018-Feb-22 15:57N 43°35' W 003°32'0 0.8
2018-Feb-22 15:21N 43°35' W 003°31'0 1.0
2018-Feb-22 15:00N 43°34' W 003°31'0 0.5
2018-Feb-22 14:30N 43°34' W 003°31'1 2.9
2018-Feb-22 14:00N 43°35' W 003°32'2 3.1
2018-Feb-22 13:30N 43°34' W 003°34'0 0.6
2018-Feb-22 13:00N 43°35' W 003°34'0 0.2
2018-Feb-22 12:30N 43°35' W 003°34'2 3.1
2018-Feb-22 12:00N 43°36' W 003°36'0 0.6
2018-Feb-22 11:30N 43°36' W 003°36'0 0.8
2018-Feb-22 11:00N 43°35' W 003°36'0 1.0
2018-Feb-22 10:30N 43°35' W 003°37'0 0.7
2018-Feb-22 10:00N 43°35' W 003°37'1 2.4
2018-Feb-22 09:30N 43°36' W 003°38'0 0.1
2018-Feb-22 06:32N 43°36' W 003°38'1 7.9
2018-Feb-22 06:26N 43°35' W 003°37'1 2.6
2018-Feb-22 06:00N 43°36' W 003°36'2 4.2
2018-Feb-22 05:30N 43°35' W 003°33'0 0.6
2018-Feb-22 05:00N 43°35' W 003°33'0 0.9
2018-Feb-22 04:30N 43°35' W 003°32'1 1.5
2018-Feb-22 04:00N 43°34' W 003°31'2 4.1
2018-Feb-22 03:30N 43°35' W 003°34'3 5.8
2018-Feb-22 03:00N 43°34' W 003°38'  
2018-Feb-15 15:14N 43°33' W 003°43'2 8.7
2018-Feb-15 14:59N 43°35' W 003°42'1 2.7
2018-Feb-15 14:30N 43°36' W 003°41'4 1.9
2018-Feb-15 12:35N 43°39' W 003°39'0 0.9
2018-Feb-15 12:13N 43°39' W 003°40'0 0.7
2018-Feb-15 12:00N 43°39' W 003°40'2 0.7
2018-Feb-15 09:14N 43°38' W 003°42'0 1.0
2018-Feb-15 08:56N 43°38' W 003°42'1 1.7
2018-Feb-15 08:30N 43°39' W 003°42'0 0.5
2018-Feb-15 07:55N 43°39' W 003°41'0 0.2
2018-Feb-15 07:22N 43°39' W 003°41'1 1.5
2018-Feb-15 06:47N 43°39' W 003°40'1 1.8
2018-Feb-15 06:25N 43°39' W 003°39'7 0.4
2018-Feb-14 13:24N 43°33' W 003°42'3 7.8
2018-Feb-14 13:00N 43°35' W 003°40'1 2.1
2018-Feb-14 12:27N 43°36' W 003°39'0 0.8
2018-Feb-14 12:00N 43°36' W 003°39'0 0.4
2018-Feb-14 11:26N 43°36' W 003°39'0 0.8
2018-Feb-14 11:00N 43°36' W 003°39'0 0.5
2018-Feb-14 10:29N 43°37' W 003°39'0 0.7
2018-Feb-14 09:54N 43°37' W 003°38'0 0.6
2018-Feb-14 09:29N 43°37' W 003°38'0 0.1
2018-Feb-14 06:37N 43°37' W 003°38'1 4.7
2018-Feb-14 06:25N 43°37' W 003°39'1 1.3
2018-Feb-14 06:00N 43°36' W 003°39'2 2.4
2018-Feb-14 05:20N 43°36' W 003°41'3 5.3
2018-Feb-14 04:48N 43°33' W 003°43'  
Track history (hours):
 
Tides and Currents Weather Stations Pressure Air Temp Water Temp Dewpoint Dewpoint Depression Visibility Wind Speed Wind Dir Waves Ship Positions

Siempre Rufo

Last reported at 2018-Feb-23 18:15 UTC. Time now 2018-Feb-24 20:19 UTC.
Position N 43°32' W 003°39'.

Length 18 m.

Type: Fishing. MMSI: 224011530.

Date/timePositionNaut miles runAvg speedWind from/ knotsBaromVisibWave heightAir tempDewpointWater temp
2018-Feb-23 18:15N 43°32' W 003°39'2 8.1
2018-Feb-23 18:00N 43°33' W 003°37'4 8.2
2018-Feb-23 17:30N 43°35' W 003°33'0 0.4
2018-Feb-23 17:00N 43°35' W 003°33'0 0.9
2018-Feb-23 16:30N 43°35' W 003°33'1 2.3
2018-Feb-23 15:59N 43°36' W 003°34'0 0.5
2018-Feb-23 15:29N 43°36' W 003°34'0 0.7
2018-Feb-23 15:00N 43°36' W 003°34'1 1.4
2018-Feb-23 14:29N 43°36' W 003°34'0 0.5
2018-Feb-23 13:57N 43°36' W 003°33'0 0.6
2018-Feb-23 13:26N 43°37' W 003°33'0 0.7
2018-Feb-23 12:56N 43°36' W 003°32'1 3.1
2018-Feb-23 12:30N 43°36' W 003°34'1 2.1
2018-Feb-23 12:00N 43°36' W 003°35'0 0.9
2018-Feb-23 11:30N 43°36' W 003°36'0 0.9
2018-Feb-23 11:00N 43°35' W 003°37'1 1.7
2018-Feb-23 10:30N 43°36' W 003°35'0 0.8
2018-Feb-23 10:00N 43°36' W 003°36'0 0.8
2018-Feb-23 09:30N 43°35' W 003°37'0 0.9
2018-Feb-23 09:00N 43°35' W 003°37'2 4.6
2018-Feb-23 08:30N 43°34' W 003°34'0 0.8
2018-Feb-23 08:00N 43°35' W 003°34'0 0.7
2018-Feb-23 07:30N 43°35' W 003°34'0 0.7
2018-Feb-23 07:00N 43°35' W 003°34'1 1.8
2018-Feb-23 06:30N 43°36' W 003°34'1 1.8
2018-Feb-23 06:00N 43°36' W 003°33'1 2.3
2018-Feb-23 05:30N 43°36' W 003°34'1 1.6
2018-Feb-23 05:00N 43°36' W 003°35'0 0.5
2018-Feb-23 04:30N 43°36' W 003°36'2 4.5
2018-Feb-23 04:00N 43°34' W 003°38'3 0.3
2018-Feb-22 18:36N 43°32' W 003°39'1 8.4
2018-Feb-22 18:30N 43°32' W 003°39'4 8.3
2018-Feb-22 18:00N 43°34' W 003°34'1 1.8
2018-Feb-22 17:30N 43°35' W 003°33'0 0.4
2018-Feb-22 17:00N 43°35' W 003°32'0 0.4
2018-Feb-22 16:29N 43°35' W 003°32'0 0.5
2018-Feb-22 15:57N 43°35' W 003°32'0 0.8
2018-Feb-22 15:21N 43°35' W 003°31'0 1.0
2018-Feb-22 15:00N 43°34' W 003°31'0 0.5
2018-Feb-22 14:30N 43°34' W 003°31'1 2.9
2018-Feb-22 14:00N 43°35' W 003°32'2 3.1
2018-Feb-22 13:30N 43°34' W 003°34'0 0.6
2018-Feb-22 13:00N 43°35' W 003°34'0 0.2
2018-Feb-22 12:30N 43°35' W 003°34'2 3.1
2018-Feb-22 12:00N 43°36' W 003°36'0 0.6
2018-Feb-22 11:30N 43°36' W 003°36'0 0.8
2018-Feb-22 11:00N 43°35' W 003°36'0 1.0
2018-Feb-22 10:30N 43°35' W 003°37'0 0.7
2018-Feb-22 10:00N 43°35' W 003°37'1 2.4
2018-Feb-22 09:30N 43°36' W 003°38'0 0.1
2018-Feb-22 06:32N 43°36' W 003°38'1 7.9
2018-Feb-22 06:26N 43°35' W 003°37'1 2.6
2018-Feb-22 06:00N 43°36' W 003°36'2 4.2
2018-Feb-22 05:30N 43°35' W 003°33'0 0.6
2018-Feb-22 05:00N 43°35' W 003°33'0 0.9
2018-Feb-22 04:30N 43°35' W 003°32'1 1.5
2018-Feb-22 04:00N 43°34' W 003°31'2 4.1
2018-Feb-22 03:30N 43°35' W 003°34'3 5.8
2018-Feb-22 03:00N 43°34' W 003°38'  
2018-Feb-15 15:14N 43°33' W 003°43'2 8.7
2018-Feb-15 14:59N 43°35' W 003°42'1 2.7
2018-Feb-15 14:30N 43°36' W 003°41'4 1.9
2018-Feb-15 12:35N 43°39' W 003°39'0 0.9
2018-Feb-15 12:13N 43°39' W 003°40'0 0.7
2018-Feb-15 12:00N 43°39' W 003°40'2 0.7
2018-Feb-15 09:14N 43°38' W 003°42'0 1.0
2018-Feb-15 08:56N 43°38' W 003°42'1 1.7
2018-Feb-15 08:30N 43°39' W 003°42'0 0.5
2018-Feb-15 07:55N 43°39' W 003°41'0 0.2
2018-Feb-15 07:22N 43°39' W 003°41'1 1.5
2018-Feb-15 06:47N 43°39' W 003°40'1 1.8
2018-Feb-15 06:25N 43°39' W 003°39'7 0.4
2018-Feb-14 13:24N 43°33' W 003°42'3 7.8
2018-Feb-14 13:00N 43°35' W 003°40'1 2.1
2018-Feb-14 12:27N 43°36' W 003°39'0 0.8
2018-Feb-14 12:00N 43°36' W 003°39'0 0.4
2018-Feb-14 11:26N 43°36' W 003°39'0 0.8
2018-Feb-14 11:00N 43°36' W 003°39'0 0.5
2018-Feb-14 10:29N 43°37' W 003°39'0 0.7
2018-Feb-14 09:54N 43°37' W 003°38'0 0.6
2018-Feb-14 09:29N 43°37' W 003°38'0 0.1
2018-Feb-14 06:37N 43°37' W 003°38'1 4.7
2018-Feb-14 06:25N 43°37' W 003°39'1 1.3
2018-Feb-14 06:00N 43°36' W 003°39'2 2.4
2018-Feb-14 05:20N 43°36' W 003°41'3 5.3
2018-Feb-14 04:48N 43°33' W 003°43'  

Dump ship's entire track history